Time;durP1;ratioP1;P1;durP2;ratioP2;P2;SDS_P1;SDS_P2;PMS_P1;PMS_P2;Temp;Humidity;BMP_temperature;BMP_pressure;BME280_temperature;BME280_humidity;BME280_pressure;Samples;Min_cycle;Max_cycle;Signal;HPM_P1;HPM_P2
2023/08/08 00:02:02;;;;;;;1.47;1.37;;;14.80;99.90;;;;;;5009525;28;20332;-88
2023/08/08 00:04:27;;;;;;;2.10;1.90;;;14.90;99.90;;;;;;5028631;28;20182;-88
2023/08/08 00:06:53;;;;;;;1.73;1.63;;;15.20;99.90;;;;;;5006761;28;20213;-88
2023/08/08 00:09:18;;;;;;;4.43;2.20;;;15.00;99.90;;;;;;5005156;28;20235;-88
2023/08/08 00:11:44;;;;;;;2.07;1.87;;;14.90;99.90;;;;;;5013326;28;20682;-88
2023/08/08 00:14:09;;;;;;;1.80;1.70;;;15.20;99.90;;;;;;5028785;28;20293;-88
2023/08/08 00:16:35;;;;;;;2.13;1.93;;;14.80;99.90;;;;;;5012733;28;20210;-88
2023/08/08 00:19:00;;;;;;;3.30;1.57;;;15.10;99.90;;;;;;5009333;28;20186;-88
2023/08/08 00:21:26;;;;;;;1.67;1.57;;;15.10;99.90;;;;;;5012030;28;20213;-88
2023/08/08 00:23:51;;;;;;;2.13;1.70;;;15.30;99.90;;;;;;5008943;28;20188;-88
2023/08/08 00:26:17;;;;;;;1.67;1.57;;;15.00;99.90;;;;;;5009901;28;20202;-88
2023/08/08 00:28:42;;;;;;;2.63;2.00;;;15.10;99.90;;;;;;5030166;28;20213;-88
2023/08/08 00:31:08;;;;;;;1.73;1.63;;;15.20;99.90;;;;;;5007103;28;20197;-88
2023/08/08 00:33:33;;;;;;;3.00;1.67;;;14.90;99.90;;;;;;5009911;28;20230;-88
2023/08/08 00:35:59;;;;;;;1.47;1.37;;;14.70;99.90;;;;;;5007823;28;20214;-88
2023/08/08 00:38:24;;;;;;;1.70;1.60;;;14.90;99.90;;;;;;5010204;28;20194;-88
2023/08/08 00:40:50;;;;;;;2.07;1.87;;;15.00;99.90;;;;;;5009083;28;20240;-88
2023/08/08 00:43:15;;;;;;;1.93;1.77;;;15.50;99.90;;;;;;5016153;28;20213;-88
2023/08/08 00:45:44;;;;;;;3.17;2.07;;;15.20;99.90;;;;;;5010154;28;20186;-88
2023/08/08 00:48:10;;;;;;;2.10;1.65;;;14.90;99.90;;;;;;5010341;28;20209;-88
2023/08/08 00:50:36;;;;;;;2.33;1.57;;;15.30;99.90;;;;;;5025330;28;20210;-88
2023/08/08 00:53:04;;;;;;;1.55;1.45;;;15.50;99.90;;;;;;5009512;28;20709;-89
2023/08/08 00:55:30;;;;;;;2.15;1.80;;;14.70;99.90;;;;;;5012352;28;20273;-89
2023/08/08 00:57:56;;;;;;;2.00;1.85;;;14.90;99.90;;;;;;5010819;28;20234;-88
2023/08/08 01:00:22;;;;;;;2.22;1.80;;;15.10;99.90;;;;;;5012818;28;20206;-88
2023/08/08 01:02:47;;;;;;;2.20;1.70;;;15.20;99.90;;;;;;5012361;28;20616;-88
2023/08/08 01:05:13;;;;;;;2.10;1.80;;;15.20;99.90;;;;;;5009297;28;20254;-88
2023/08/08 01:07:52;;;;;;;2.17;1.73;;;14.80;99.90;;;;;;5026703;28;20297;-87
2023/08/08 01:10:35;;;;;;;6.18;2.00;;;15.20;99.90;;;;;;5011787;28;20186;-88
2023/08/08 01:13:06;;;;;;;1.83;1.73;;;15.50;99.90;;;;;;5027206;28;20241;-87
2023/08/08 01:15:35;;;;;;;2.30;1.65;;;15.30;99.90;;;;;;5034796;28;20238;-88
2023/08/08 01:18:04;;;;;;;1.98;1.70;;;15.70;99.90;;;;;;5012738;28;20230;-87
2023/08/08 01:20:31;;;;;;;1.73;1.63;;;15.20;99.90;;;;;;5007105;28;20201;-88
2023/08/08 01:23:32;;;;;;;1.95;1.80;;;15.70;99.90;;;;;;5011664;28;20205;-88
2023/08/08 01:25:59;;;;;;;1.85;1.75;;;15.50;99.90;;;;;;5011916;28;20182;-88
2023/08/08 01:28:25;;;;;;;1.67;1.55;;;15.90;99.90;;;;;;5010721;28;20225;-88
2023/08/08 01:30:51;;;;;;;1.80;1.70;;;15.80;99.90;;;;;;5010926;28;20196;-88
2023/08/08 01:33:17;;;;;;;2.85;1.65;;;15.00;99.90;;;;;;5006763;28;20256;-88
2023/08/08 01:35:47;;;;;;;2.40;1.73;;;15.60;99.90;;;;;;5012217;28;20178;-88
2023/08/08 01:38:19;;;;;;;1.92;1.55;;;15.40;99.90;;;;;;5010831;28;20190;-88
2023/08/08 01:40:46;;;;;;;1.48;1.38;;;15.90;99.90;;;;;;5022162;28;20178;-88
2023/08/08 01:43:13;;;;;;;1.77;1.67;;;15.40;99.90;;;;;;5028102;28;20217;-88
2023/08/08 01:45:39;;;;;;;3.00;1.80;;;15.50;99.90;;;;;;4997916;28;20191;-87
2023/08/08 01:48:09;;;;;;;2.03;1.77;;;15.70;99.90;;;;;;5006788;28;20190;-87
2023/08/08 01:50:35;;;;;;;1.40;1.30;;;15.10;99.90;;;;;;5009709;28;20273;-87
2023/08/08 01:53:01;;;;;;;1.70;1.60;;;15.50;99.90;;;;;;5011914;28;20206;-88
2023/08/08 01:55:26;;;;;;;2.37;1.60;;;15.90;99.90;;;;;;5011781;28;20179;-88
2023/08/08 01:57:52;;;;;;;2.20;1.53;;;15.50;99.90;;;;;;5006517;28;20209;-88
2023/08/08 02:00:17;;;;;;;1.70;1.57;;;15.90;99.90;;;;;;5011597;28;20561;-88
2023/08/08 02:02:43;;;;;;;2.50;1.60;;;15.60;99.90;;;;;;5029972;28;20193;-88
2023/08/08 02:05:09;;;;;;;1.83;1.50;;;16.00;99.90;;;;;;5033196;28;20276;-88
2023/08/08 02:07:34;;;;;;;2.07;1.87;;;16.00;99.90;;;;;;5013575;28;20293;-88
2023/08/08 02:10:00;;;;;;;2.80;1.77;;;16.00;99.90;;;;;;5015368;28;20273;-88
2023/08/08 02:12:25;;;;;;;2.47;1.70;;;16.00;99.90;;;;;;5014766;28;20186;-88
2023/08/08 02:14:51;;;;;;;2.60;2.00;;;15.60;99.90;;;;;;5013863;28;20190;-88
2023/08/08 02:17:16;;;;;;;2.00;1.80;;;15.50;99.90;;;;;;5015309;28;20234;-88
2023/08/08 02:19:42;;;;;;;2.20;1.50;;;16.00;99.90;;;;;;5030246;28;20193;-88
2023/08/08 02:22:07;;;;;;;2.80;1.40;;;15.60;99.90;;;;;;5012142;28;20186;-88
2023/08/08 02:24:33;;;;;;;1.63;1.53;;;15.80;99.90;;;;;;5032243;28;20186;-88
2023/08/08 02:26:58;;;;;;;1.70;1.50;;;15.80;99.90;;;;;;5015648;28;20275;-88
2023/08/08 02:29:24;;;;;;;2.23;2.03;;;15.80;99.90;;;;;;5012256;28;20190;-88
2023/08/08 02:31:49;;;;;;;1.40;1.30;;;16.10;99.90;;;;;;5015461;28;20183;-87
2023/08/08 02:34:15;;;;;;;3.00;1.50;;;15.90;99.90;;;;;;5012147;28;20213;-88
2023/08/08 02:36:40;;;;;;;1.67;1.57;;;16.00;99.90;;;;;;5021409;28;20216;-87
2023/08/08 02:39:06;;;;;;;1.97;1.87;;;15.80;99.90;;;;;;5017332;28;20600;-88
2023/08/08 02:41:31;;;;;;;1.90;1.60;;;15.50;99.90;;;;;;5012255;28;20677;-88
2023/08/08 02:43:57;;;;;;;1.60;1.50;;;15.50;99.90;;;;;;5010754;28;20200;-88
2023/08/08 02:46:22;;;;;;;4.37;1.50;;;15.50;99.90;;;;;;5016208;28;20205;-88
2023/08/08 02:48:48;;;;;;;1.53;1.43;;;15.60;99.90;;;;;;5011843;28;20194;-88
2023/08/08 02:51:13;;;;;;;1.80;1.53;;;15.60;99.90;;;;;;5013018;28;20202;-88
2023/08/08 02:53:39;;;;;;;2.27;2.10;;;15.50;99.90;;;;;;5014344;28;21017;-88
2023/08/08 02:56:04;;;;;;;2.20;1.77;;;15.60;99.90;;;;;;5015377;28;20284;-88
2023/08/08 02:58:30;;;;;;;2.60;1.60;;;15.40;99.90;;;;;;5015268;28;20268;-88
2023/08/08 03:00:55;;;;;;;1.83;1.73;;;15.20;99.90;;;;;;5032364;28;20202;-88
2023/08/08 03:03:21;;;;;;;1.70;1.60;;;15.20;99.90;;;;;;5017119;28;20186;-88
2023/08/08 03:05:47;;;;;;;1.90;1.70;;;15.60;99.90;;;;;;5010717;28;20189;-88
2023/08/08 03:08:12;;;;;;;1.57;1.47;;;15.30;99.90;;;;;;5008283;28;20281;-88
2023/08/08 03:10:38;;;;;;;2.03;1.80;;;15.20;99.90;;;;;;5013603;28;20197;-88
2023/08/08 03:13:03;;;;;;;2.03;1.83;;;15.30;99.90;;;;;;5013096;28;20213;-87
2023/08/08 03:15:29;;;;;;;2.57;1.70;;;15.00;99.90;;;;;;5012950;28;20182;-88
2023/08/08 03:17:55;;;;;;;1.93;1.67;;;15.20;99.90;;;;;;5013776;28;20206;-88
2023/08/08 03:20:21;;;;;;;1.45;1.35;;;14.70;99.90;;;;;;5025419;28;20179;-88
2023/08/08 03:22:46;;;;;;;1.63;1.53;;;15.00;99.90;;;;;;5025892;28;20182;-88
2023/08/08 03:25:12;;;;;;;1.87;1.70;;;15.00;99.90;;;;;;5011828;28;20187;-88
2023/08/08 03:27:37;;;;;;;3.27;2.10;;;15.10;99.90;;;;;;5010803;28;20222;-88
2023/08/08 03:30:03;;;;;;;1.87;1.57;;;15.50;99.90;;;;;;5031053;28;20174;-88
2023/08/08 03:32:29;;;;;;;4.18;1.70;;;15.20;99.90;;;;;;5042505;28;20198;-88
2023/08/08 03:34:54;;;;;;;3.03;2.57;;;15.30;99.90;;;;;;5030210;28;20213;-88
2023/08/08 03:37:21;;;;;;;2.23;1.90;;;15.10;99.90;;;;;;5013278;28;20333;-88
2023/08/08 03:39:46;;;;;;;2.15;1.95;;;15.20;99.90;;;;;;5012125;28;20588;-88
2023/08/08 03:42:12;;;;;;;1.93;1.83;;;15.30;99.90;;;;;;5030786;28;20289;-88
2023/08/08 03:44:37;;;;;;;3.10;1.50;;;15.00;99.90;;;;;;5011367;28;20655;-88
2023/08/08 03:47:03;;;;;;;1.83;1.40;;;15.10;99.90;;;;;;5012851;28;20210;-89
2023/08/08 03:49:29;;;;;;;2.88;2.30;;;15.10;99.90;;;;;;5011731;28;20572;-88
2023/08/08 03:51:54;;;;;;;2.27;1.80;;;15.10;99.90;;;;;;5009694;28;20182;-88
2023/08/08 03:54:20;;;;;;;2.13;1.93;;;15.20;99.90;;;;;;5013156;28;20202;-88
2023/08/08 03:56:45;;;;;;;2.17;1.97;;;15.20;99.90;;;;;;5009828;28;20211;-88
2023/08/08 03:59:11;;;;;;;2.33;1.80;;;15.20;99.90;;;;;;5012971;28;20186;-87
2023/08/08 04:01:37;;;;;;;3.17;1.90;;;15.50;99.90;;;;;;5012178;28;20186;-88
2023/08/08 04:04:03;;;;;;;2.95;1.83;;;15.70;99.90;;;;;;5010941;28;20186;-88
2023/08/08 04:06:29;;;;;;;2.28;2.05;;;15.20;99.90;;;;;;5028621;28;20210;-88
2023/08/08 04:08:55;;;;;;;3.47;3.17;;;15.30;99.90;;;;;;5015746;28;20193;-88
2023/08/08 04:11:22;;;;;;;2.20;2.07;;;15.60;99.90;;;;;;5010024;28;20644;-88
2023/08/08 04:13:47;;;;;;;2.53;2.33;;;15.90;99.90;;;;;;5011042;28;20348;-88
2023/08/08 04:16:13;;;;;;;3.10;1.97;;;15.00;99.90;;;;;;5027470;28;20782;-88
2023/08/08 04:18:38;;;;;;;3.17;1.90;;;15.60;99.90;;;;;;5011881;28;20192;-88
2023/08/08 04:21:04;;;;;;;2.83;2.00;;;15.50;99.90;;;;;;5012342;28;20189;-89
2023/08/08 04:23:29;;;;;;;2.33;1.93;;;15.50;99.90;;;;;;5005574;28;20221;-89
2023/08/08 04:25:55;;;;;;;2.50;1.97;;;15.80;99.90;;;;;;5009755;28;20208;-88
2023/08/08 04:28:21;;;;;;;3.40;1.70;;;15.80;99.90;;;;;;5013134;28;20230;-88
2023/08/08 04:30:46;;;;;;;2.20;1.90;;;15.90;99.90;;;;;;5008583;28;20182;-88
2023/08/08 04:33:12;;;;;;;2.67;2.47;;;15.60;99.90;;;;;;5007443;28;20214;-88
2023/08/08 04:35:37;;;;;;;2.33;2.13;;;16.00;99.90;;;;;;5011266;28;20209;-88
2023/08/08 04:38:03;;;;;;;3.67;3.37;;;16.00;99.90;;;;;;5030452;28;20866;-88
2023/08/08 04:40:29;;;;;;;2.10;1.90;;;15.60;99.90;;;;;;5022642;28;20282;-88
2023/08/08 04:42:54;;;;;;;1.70;1.60;;;16.40;99.90;;;;;;5029674;28;20575;-89
2023/08/08 04:45:20;;;;;;;3.10;2.10;;;15.50;99.90;;;;;;5013084;28;20189;-88
2023/08/08 04:47:46;;;;;;;2.33;2.00;;;15.60;99.90;;;;;;5031119;28;20202;-88
2023/08/08 04:50:12;;;;;;;2.00;1.80;;;15.90;99.90;;;;;;5012834;28;20193;-89
2023/08/08 04:52:37;;;;;;;3.70;2.23;;;15.60;99.90;;;;;;5027975;28;20437;-88
2023/08/08 04:55:03;;;;;;;2.10;1.80;;;15.40;99.90;;;;;;5029851;28;20193;-88
2023/08/08 04:57:30;;;;;;;5.05;2.15;;;15.60;99.90;;;;;;5007798;28;20219;-88
2023/08/08 04:59:56;;;;;;;2.80;1.80;;;15.90;99.90;;;;;;5012581;28;20193;-89
2023/08/08 05:02:22;;;;;;;2.83;2.00;;;15.70;99.90;;;;;;5007289;28;20251;-88
2023/08/08 05:04:47;;;;;;;2.40;2.20;;;15.30;99.90;;;;;;5009897;28;20647;-88
2023/08/08 05:07:13;;;;;;;2.47;2.27;;;16.20;99.90;;;;;;5023769;28;20210;-88
2023/08/08 05:09:38;;;;;;;2.10;2.00;;;15.70;99.90;;;;;;5028988;28;20592;-88
2023/08/08 05:12:04;;;;;;;2.37;1.77;;;15.80;99.90;;;;;;5027585;28;20178;-88
2023/08/08 05:14:30;;;;;;;1.77;1.60;;;15.70;99.90;;;;;;5012348;28;20236;-89
2023/08/08 05:16:55;;;;;;;2.30;2.10;;;16.10;99.90;;;;;;5009127;28;20218;-88
2023/08/08 05:19:21;;;;;;;2.53;2.33;;;15.80;99.90;;;;;;5019053;28;20213;-88
2023/08/08 05:21:47;;;;;;;1.80;1.67;;;15.40;99.90;;;;;;5009556;28;20272;-88
2023/08/08 05:24:12;;;;;;;2.03;1.83;;;16.20;99.90;;;;;;5028781;28;20264;-89
2023/08/08 05:26:38;;;;;;;3.73;1.80;;;15.90;99.90;;;;;;5011556;28;20618;-88
2023/08/08 05:29:03;;;;;;;3.13;1.70;;;15.80;99.90;;;;;;5012064;28;20224;-88
2023/08/08 05:31:29;;;;;;;2.03;1.90;;;16.30;99.90;;;;;;5011906;28;20253;-87
2023/08/08 05:33:54;;;;;;;2.47;1.80;;;16.00;99.90;;;;;;5007708;28;20252;-88
2023/08/08 05:36:20;;;;;;;2.17;1.80;;;16.30;99.90;;;;;;5011336;28;20236;-88
2023/08/08 05:38:45;;;;;;;3.00;2.00;;;16.00;99.90;;;;;;5011016;28;20203;-88
2023/08/08 05:41:11;;;;;;;2.43;1.80;;;16.60;99.90;;;;;;5015495;28;20186;-88
2023/08/08 05:43:36;;;;;;;2.27;2.00;;;16.20;99.90;;;;;;5032695;28;20182;-88
2023/08/08 05:46:02;;;;;;;1.70;1.60;;;16.50;99.90;;;;;;5032791;28;20206;-88
2023/08/08 05:48:27;;;;;;;3.50;1.77;;;16.80;99.90;;;;;;5016388;28;20190;-87
2023/08/08 05:50:53;;;;;;;2.00;1.80;;;16.70;99.90;;;;;;5014167;28;20273;-88
2023/08/08 05:53:18;;;;;;;1.50;1.40;;;16.10;99.90;;;;;;5018341;28;20220;-88
2023/08/08 05:55:44;;;;;;;2.00;1.90;;;16.60;99.90;;;;;;5015306;28;20186;-88
2023/08/08 05:58:10;;;;;;;1.47;1.37;;;16.10;99.90;;;;;;5031436;28;20268;-88
2023/08/08 06:00:35;;;;;;;2.03;1.60;;;16.60;99.90;;;;;;5016639;28;20219;-88
2023/08/08 06:03:01;;;;;;;2.27;1.77;;;16.60;99.90;;;;;;5015569;28;20236;-88
2023/08/08 06:05:28;;;;;;;2.08;1.58;;;17.20;99.90;;;;;;5013003;28;20186;-88
2023/08/08 06:07:56;;;;;;;3.92;1.52;;;16.30;99.90;;;;;;5010878;28;20212;-88
2023/08/08 06:10:22;;;;;;;2.10;1.90;;;17.20;99.90;;;;;;5030485;28;20183;-88
2023/08/08 06:12:47;;;;;;;3.63;1.58;;;17.20;99.90;;;;;;5010585;28;20192;-88
2023/08/08 06:15:13;;;;;;;2.40;1.63;;;17.10;99.90;;;;;;5032713;28;20600;-88
2023/08/08 06:17:39;;;;;;;2.37;2.13;;;17.50;99.90;;;;;;5014960;28;20217;-88
2023/08/08 06:20:06;;;;;;;1.60;1.50;;;17.20;99.90;;;;;;5030277;28;20274;-88
2023/08/08 06:22:32;;;;;;;1.65;1.55;;;17.60;99.90;;;;;;5014924;28;20189;-88
2023/08/08 06:24:57;;;;;;;3.93;1.93;;;18.00;99.90;;;;;;5010226;28;20182;-88
2023/08/08 06:27:23;;;;;;;1.90;1.70;;;17.70;99.80;;;;;;5034244;22;20216;-86
2023/08/08 06:29:49;;;;;;;2.23;1.90;;;17.80;99.50;;;;;;5014481;28;20217;-86
2023/08/08 06:32:14;;;;;;;3.50;1.70;;;18.00;99.00;;;;;;5032825;28;20576;-85
2023/08/08 06:34:40;;;;;;;1.73;1.60;;;18.10;98.90;;;;;;5032097;28;20588;-86
2023/08/08 06:37:05;;;;;;;2.07;1.70;;;18.20;98.30;;;;;;5027146;28;20258;-86
2023/08/08 06:39:31;;;;;;;3.93;1.87;;;18.60;98.20;;;;;;5021217;28;20186;-87
2023/08/08 06:41:57;;;;;;;1.73;1.63;;;18.40;97.60;;;;;;5020822;28;20724;-86
2023/08/08 06:44:23;;;;;;;3.33;1.57;;;19.00;97.80;;;;;;5026752;28;20198;-86
2023/08/08 06:46:48;;;;;;;2.60;1.70;;;18.40;97.80;;;;;;5028348;28;20575;-86
2023/08/08 06:49:14;;;;;;;2.17;1.40;;;19.00;97.20;;;;;;5020094;28;20553;-87
2023/08/08 06:51:39;;;;;;;1.97;1.53;;;19.00;97.20;;;;;;5028516;28;20581;-86
2023/08/08 06:54:05;;;;;;;1.47;1.37;;;19.10;97.20;;;;;;5018980;28;20209;-86
2023/08/08 06:56:31;;;;;;;2.47;2.08;;;19.30;97.10;;;;;;5020708;28;20228;-87
2023/08/08 06:58:56;;;;;;;2.30;1.70;;;19.10;96.90;;;;;;5020941;28;20187;-87
2023/08/08 07:01:22;;;;;;;2.10;1.90;;;18.90;96.70;;;;;;5026190;28;20178;-86
2023/08/08 07:03:48;;;;;;;2.33;1.60;;;19.20;96.70;;;;;;5024547;28;20185;-86
2023/08/08 07:06:15;;;;;;;1.70;1.37;;;20.00;96.70;;;;;;5027011;28;20604;-86
2023/08/08 07:08:40;;;;;;;2.33;1.80;;;19.40;95.80;;;;;;5019099;28;20189;-87
2023/08/08 07:11:06;;;;;;;2.57;1.53;;;20.40;95.50;;;;;;5017498;28;20269;-87
2023/08/08 07:13:32;;;;;;;1.83;1.67;;;21.10;94.60;;;;;;5021705;28;20204;-87
2023/08/08 07:15:57;;;;;;;3.70;2.23;;;21.50;93.10;;;;;;5022941;28;20438;-87
2023/08/08 07:18:23;;;;;;;1.77;1.50;;;22.70;91.80;;;;;;5021173;28;20212;-87
2023/08/08 07:20:49;;;;;;;2.63;1.77;;;22.90;89.70;;;;;;5006218;28;20182;-87
2023/08/08 07:23:16;;;;;;;3.20;1.40;;;24.50;86.70;;;;;;5009379;28;20208;-88
2023/08/08 07:25:42;;;;;;;1.40;1.30;;;25.70;81.90;;;;;;5018721;28;20432;-85
2023/08/08 07:28:08;;;;;;;2.63;1.90;;;26.50;78.10;;;;;;5015856;28;20457;-87
2023/08/08 07:30:34;;;;;;;1.87;1.67;;;26.70;73.90;;;;;;5013626;28;20186;-85
2023/08/08 07:32:59;;;;;;;2.33;2.10;;;27.80;71.80;;;;;;5016180;28;21117;-85
2023/08/08 07:35:32;;;;;;;2.90;1.40;;;29.40;66.40;;;;;;5012247;28;20895;-86
2023/08/08 07:37:58;;;;;;;8.37;2.40;;;29.50;63.50;;;;;;5037614;28;20701;-85
2023/08/08 07:40:24;;;;;;;2.03;1.77;;;30.10;61.80;;;;;;5020572;28;20442;-85
2023/08/08 07:42:50;;;;;;;1.70;1.50;;;31.10;57.90;;;;;;5034457;28;20209;-86
2023/08/08 07:45:16;;;;;;;2.13;1.53;;;31.70;56.40;;;;;;5017982;28;20452;-85
2023/08/08 07:47:42;;;;;;;2.10;1.40;;;31.10;55.30;;;;;;5006448;28;20341;-86
2023/08/08 07:50:08;;;;;;;2.53;1.43;;;31.90;53.30;;;;;;5023043;28;20452;-85
2023/08/08 07:52:35;;;;;;;1.67;1.30;;;32.10;52.10;;;;;;5029569;28;20246;-86
2023/08/08 07:55:01;;;;;;;1.73;1.40;;;33.00;49.50;;;;;;5040822;28;20528;-85
2023/08/08 07:57:27;;;;;;;1.90;1.70;;;32.30;49.00;;;;;;5018578;28;20880;-85
2023/08/08 07:59:52;;;;;;;1.70;1.43;;;31.60;49.90;;;;;;5020133;28;20475;-85
2023/08/08 08:02:18;;;;;;;2.10;1.97;;;31.10;50.30;;;;;;5028473;28;20452;-85
2023/08/08 08:04:43;;;;;;;1.40;1.30;;;30.10;52.20;;;;;;5021125;28;20182;-86
2023/08/08 08:07:09;;;;;;;1.40;1.30;;;28.90;53.80;;;;;;5020275;28;21348;-86
2023/08/08 08:09:34;;;;;;;2.30;1.93;;;27.40;55.70;;;;;;5024725;28;20610;-85
2023/08/08 08:12:00;;;;;;;1.93;1.73;;;27.00;56.70;;;;;;5009228;28;20184;-85
2023/08/08 08:14:25;;;;;;;2.03;1.63;;;27.00;58.50;;;;;;5014655;28;20685;-86
2023/08/08 08:16:51;;;;;;;3.30;1.43;;;27.90;58.20;;;;;;5029064;28;20554;-86
2023/08/08 08:19:17;;;;;;;1.63;1.40;;;27.60;57.30;;;;;;5007010;28;20187;-86
2023/08/08 08:21:43;;;;;;;3.67;1.50;;;27.50;55.80;;;;;;5032378;28;20279;-86
2023/08/08 08:24:08;;;;;;;1.80;1.30;;;27.20;56.50;;;;;;5028154;28;20197;-86
2023/08/08 08:26:34;;;;;;;1.90;1.57;;;26.70;57.10;;;;;;5008811;28;20471;-86
2023/08/08 08:29:00;;;;;;;4.70;2.17;;;26.50;58.30;;;;;;5024223;28;20269;-86
2023/08/08 08:31:25;;;;;;;1.47;1.37;;;25.60;59.70;;;;;;5026165;28;20223;-86
2023/08/08 08:33:51;;;;;;;1.50;1.40;;;25.20;61.50;;;;;;5037353;28;20258;-87
2023/08/08 08:36:17;;;;;;;1.50;1.40;;;24.90;62.20;;;;;;5035374;28;20190;-87
2023/08/08 08:38:42;;;;;;;2.93;1.63;;;24.80;63.50;;;;;;5038055;28;20456;-86
2023/08/08 08:41:12;;;;;;;1.93;1.70;;;24.30;65.60;;;;;;5050744;28;20190;-86
2023/08/08 08:43:38;;;;;;;2.00;1.60;;;24.10;67.00;;;;;;5035698;28;20175;-86
2023/08/08 08:46:04;;;;;;;1.60;1.30;;;23.90;70.40;;;;;;5036191;28;20610;-87
2023/08/08 08:48:31;;;;;;;1.90;1.80;;;25.30;66.50;;;;;;5033750;28;20185;-87
2023/08/08 08:50:57;;;;;;;3.13;1.63;;;25.90;62.60;;;;;;5028500;28;20437;-86
2023/08/08 08:53:23;;;;;;;2.20;1.90;;;26.10;62.50;;;;;;5034756;28;20545;-87
2023/08/08 08:55:48;;;;;;;1.47;1.37;;;27.10;61.70;;;;;;5039575;28;20459;-87
2023/08/08 08:58:16;;;;;;;1.47;1.37;;;27.00;62.40;;;;;;5036179;28;20628;-87
2023/08/08 09:00:44;;;;;;;1.70;1.60;;;27.00;60.90;;;;;;5039235;28;20198;-87
2023/08/08 09:03:10;;;;;;;2.00;1.80;;;27.50;59.00;;;;;;5035566;28;20469;-87
2023/08/08 09:05:37;;;;;;;3.33;1.57;;;28.40;57.10;;;;;;5022752;28;20460;-87
2023/08/08 09:08:03;;;;;;;1.77;1.50;;;28.80;55.20;;;;;;5018184;28;20218;-87
2023/08/08 09:10:31;;;;;;;2.23;1.43;;;29.00;54.20;;;;;;5015765;28;20519;-87
2023/08/08 09:12:57;;;;;;;1.67;1.33;;;30.00;53.10;;;;;;5012955;28;20197;-87
2023/08/08 09:15:22;;;;;;;2.60;1.67;;;29.10;53.30;;;;;;5012140;28;20460;-87
2023/08/08 09:17:48;;;;;;;1.40;1.30;;;29.20;55.20;;;;;;5013425;28;20209;-87
2023/08/08 09:20:14;;;;;;;1.90;1.80;;;29.40;54.00;;;;;;5013351;28;20188;-87
2023/08/08 09:22:40;;;;;;;1.53;1.43;;;28.60;54.90;;;;;;5036629;28;20276;-87
2023/08/08 09:25:07;;;;;;;1.87;1.60;;;28.60;55.30;;;;;;5017441;28;20447;-86
2023/08/08 09:27:33;;;;;;;1.93;1.77;;;27.70;55.50;;;;;;5013583;28;20214;-86
2023/08/08 09:29:59;;;;;;;1.40;1.20;;;27.10;56.60;;;;;;5032917;28;20797;-87
2023/08/08 09:32:30;;;;;;;1.60;1.50;;;26.80;57.30;;;;;;5010984;28;20265;-87
2023/08/08 09:34:57;;;;;;;2.47;1.70;;;26.70;57.70;;;;;;5021055;28;20699;-87
2023/08/08 09:37:23;;;;;;;2.20;1.43;;;26.90;57.60;;;;;;5010170;28;20456;-86
2023/08/08 09:39:57;;;;;;;1.67;1.57;;;26.10;58.00;;;;;;5019388;28;20987;-87
2023/08/08 09:42:23;;;;;;;2.07;1.60;;;25.50;58.90;;;;;;5014607;28;20183;-86
2023/08/08 09:44:48;;;;;;;4.60;1.50;;;26.40;60.20;;;;;;5008013;28;20440;-87
2023/08/08 09:47:14;;;;;;;1.63;1.53;;;25.80;60.50;;;;;;5014790;28;20448;-87
2023/08/08 09:49:41;;;;;;;2.07;1.60;;;25.20;60.00;;;;;;5013693;28;21427;-87
2023/08/08 09:52:07;;;;;;;1.90;1.57;;;25.60;61.20;;;;;;5014142;28;20442;-86
2023/08/08 09:54:34;;;;;;;2.20;2.00;;;24.40;60.80;;;;;;5016290;28;20539;-87
2023/08/08 09:56:59;;;;;;;1.43;1.33;;;24.50;61.90;;;;;;5011337;28;20211;-87
2023/08/08 09:59:25;;;;;;;2.80;1.30;;;24.20;61.90;;;;;;5012579;28;20450;-87
2023/08/08 10:01:52;;;;;;;1.30;1.20;;;24.30;62.50;;;;;;5012540;28;20468;-85
2023/08/08 10:04:18;;;;;;;1.73;1.57;;;24.40;61.80;;;;;;5040334;28;20507;-85
2023/08/08 10:06:44;;;;;;;3.60;1.10;;;24.40;61.50;;;;;;5014991;28;20469;-86
2023/08/08 10:09:09;;;;;;;1.73;1.63;;;24.40;61.30;;;;;;5014469;28;20555;-87
2023/08/08 10:11:35;;;;;;;1.47;1.30;;;24.30;61.70;;;;;;5012590;28;20449;-87
2023/08/08 10:14:04;;;;;;;1.63;1.47;;;24.40;60.30;;;;;;5014064;28;20214;-87
2023/08/08 10:16:33;;;;;;;1.50;1.37;;;24.20;60.10;;;;;;5014868;28;20488;-87
2023/08/08 10:19:01;;;;;;;1.80;1.70;;;24.10;59.90;;;;;;5018428;28;20464;-87
2023/08/08 10:21:28;;;;;;;2.40;1.50;;;24.40;61.50;;;;;;5018293;28;20453;-86
2023/08/08 10:24:08;;;;;;;1.60;1.50;;;24.10;59.10;;;;;;5016650;28;20481;-87
2023/08/08 10:26:50;;;;;;;2.43;1.13;;;24.10;59.70;;;;;;5015443;28;20466;-87
2023/08/08 10:29:19;;;;;;;1.50;1.40;;;24.70;59.70;;;;;;5009344;28;20465;-87
2023/08/08 10:31:53;;;;;;;2.20;1.50;;;24.70;58.30;;;;;;5016454;28;20465;-87
2023/08/08 10:34:21;;;;;;;1.50;1.30;;;24.20;57.80;;;;;;5012831;28;20478;-87
2023/08/08 10:36:52;;;;;;;2.07;1.47;;;24.70;57.90;;;;;;5012242;28;20487;-87
2023/08/08 10:39:20;;;;;;;1.37;1.23;;;24.30;58.10;;;;;;5021750;28;20976;-87
2023/08/08 10:41:50;;;;;;;2.10;1.43;;;24.90;58.40;;;;;;5013151;28;20898;-87
2023/08/08 10:44:25;;;;;;;1.70;1.60;;;24.70;57.60;;;;;;5013809;28;20452;-87
2023/08/08 10:46:52;;;;;;;1.87;1.67;;;24.90;57.10;;;;;;5014702;28;20464;-87
2023/08/08 10:49:18;;;;;;;2.70;2.27;;;24.70;56.10;;;;;;5009356;28;20951;-86
2023/08/08 10:51:47;;;;;;;2.50;1.53;;;25.10;56.90;;;;;;5012873;28;20488;-87
2023/08/08 10:54:23;;;;;;;1.93;1.40;;;25.10;56.00;;;;;;5022286;28;20556;-87
2023/08/08 10:56:54;;;;;;;2.43;1.50;;;24.80;56.00;;;;;;5014336;28;20470;-86
2023/08/08 10:59:22;;;;;;;1.30;1.20;;;25.20;56.90;;;;;;5033501;28;20482;-87
2023/08/08 11:01:50;;;;;;;2.10;1.53;;;25.20;55.80;;;;;;5018532;28;20822;-86
2023/08/08 11:04:20;;;;;;;2.83;2.00;;;25.00;56.80;;;;;;5016728;28;20438;-86
2023/08/08 11:06:47;;;;;;;1.63;1.40;;;25.00;55.70;;;;;;5007083;28;20538;-87
2023/08/08 11:09:14;;;;;;;1.90;1.70;;;24.70;54.20;;;;;;5015446;28;20450;-86
2023/08/08 11:11:41;;;;;;;2.23;1.90;;;24.80;55.60;;;;;;5022790;28;20440;-86
2023/08/08 11:14:18;;;;;;;1.97;1.50;;;24.70;55.70;;;;;;5016317;28;20590;-86
2023/08/08 11:16:45;;;;;;;2.13;1.50;;;24.20;55.80;;;;;;5041231;28;20461;-87
2023/08/08 11:19:12;;;;;;;2.70;1.90;;;24.90;54.70;;;;;;5023124;28;20504;-86
2023/08/08 11:21:45;;;;;;;1.80;1.70;;;25.00;55.80;;;;;;5017181;28;20458;-86
2023/08/08 11:24:12;;;;;;;1.87;1.60;;;24.50;55.30;;;;;;5014326;28;20479;-86
2023/08/08 11:26:40;;;;;;;1.73;1.60;;;24.60;55.60;;;;;;5009404;28;20470;-87
2023/08/08 11:29:07;;;;;;;2.03;1.70;;;25.20;56.00;;;;;;4997542;28;20462;-87
2023/08/08 11:31:34;;;;;;;3.20;1.60;;;26.20;54.00;;;;;;5018607;28;20447;-86
2023/08/08 11:34:00;;;;;;;1.67;1.23;;;25.20;54.00;;;;;;5021822;28;20471;-86
2023/08/08 11:36:30;;;;;;;2.30;1.33;;;25.70;53.30;;;;;;5016116;28;20465;-86
2023/08/08 11:38:57;;;;;;;1.40;1.30;;;25.70;52.40;;;;;;5023030;28;20977;-86
2023/08/08 11:41:24;;;;;;;1.57;1.40;;;27.00;50.90;;;;;;5015509;28;20780;-87
2023/08/08 11:43:53;;;;;;;4.40;1.60;;;27.80;49.70;;;;;;5013665;28;20497;-87
2023/08/08 11:46:23;;;;;;;1.40;1.10;;;28.60;48.10;;;;;;5013423;28;20462;-86
2023/08/08 11:48:48;;;;;;;1.50;1.40;;;29.00;46.70;;;;;;5018650;28;20869;-86
2023/08/08 11:51:16;;;;;;;2.00;1.80;;;28.90;47.00;;;;;;5019997;28;20523;-87
2023/08/08 11:53:52;;;;;;;2.80;2.40;;;28.60;47.60;;;;;;5021404;28;20643;-87
2023/08/08 11:56:19;;;;;;;3.40;1.90;;;28.50;49.10;;;;;;5015832;28;20474;-86
2023/08/08 11:58:55;;;;;;;2.20;2.10;;;27.10;49.90;;;;;;5030970;28;20446;-86
2023/08/08 12:01:24;;;;;;;1.33;1.20;;;26.60;50.30;;;;;;5017472;28;20519;-86
2023/08/08 12:03:50;;;;;;;2.10;1.60;;;26.40;50.50;;;;;;5032195;28;20511;-87
2023/08/08 12:06:16;;;;;;;2.00;1.50;;;26.20;51.30;;;;;;5024603;28;20541;-86
2023/08/08 12:08:46;;;;;;;2.70;1.77;;;25.80;52.10;;;;;;5016633;28;20185;-86
2023/08/08 12:11:13;;;;;;;2.80;1.60;;;25.60;52.30;;;;;;5025204;28;20450;-86
2023/08/08 12:13:42;;;;;;;4.70;1.50;;;25.10;52.10;;;;;;5009760;28;20553;-86
2023/08/08 12:16:09;;;;;;;1.60;1.40;;;24.70;52.70;;;;;;5015375;28;20467;-86
2023/08/08 12:18:39;;;;;;;1.40;1.30;;;25.00;54.10;;;;;;5040121;28;20459;-86
2023/08/08 12:21:06;;;;;;;3.40;1.20;;;24.70;53.10;;;;;;5017578;28;20973;-87
2023/08/08 12:23:32;;;;;;;1.57;1.47;;;25.00;52.10;;;;;;5018244;28;20445;-87
2023/08/08 12:25:59;;;;;;;1.50;1.40;;;25.40;53.50;;;;;;5021595;28;20486;-87
2023/08/08 12:28:24;;;;;;;2.20;1.90;;;24.80;52.30;;;;;;5004148;28;20464;-85
2023/08/08 12:30:50;;;;;;;1.90;1.70;;;25.10;52.60;;;;;;5017968;28;20440;-85
2023/08/08 12:33:15;;;;;;;1.40;1.30;;;25.20;52.90;;;;;;5018231;28;20206;-85
2023/08/08 12:35:41;;;;;;;4.63;1.50;;;25.20;53.50;;;;;;5029839;28;20261;-85
2023/08/08 12:38:07;;;;;;;1.90;1.60;;;24.90;53.60;;;;;;5021116;28;20542;-85
2023/08/08 12:40:33;;;;;;;3.67;2.60;;;24.80;55.00;;;;;;5015234;28;20529;-85
2023/08/08 12:42:59;;;;;;;1.83;1.67;;;25.00;54.60;;;;;;5017069;28;20220;-85
2023/08/08 12:45:25;;;;;;;2.30;1.57;;;25.20;55.00;;;;;;5016105;28;20548;-85